createdAt,value
2023-09-14T00:00:56.514Z,20.06
2023-09-14T00:03:24.828Z,20.10
2023-09-14T00:05:53.040Z,20.11
2023-09-14T00:08:22.812Z,20.12
2023-09-14T00:10:57.083Z,20.11
2023-09-14T00:13:25.363Z,20.13
2023-09-14T00:15:53.556Z,20.12
2023-09-14T00:18:21.908Z,20.16
2023-09-14T00:20:53.991Z,20.19
2023-09-14T00:23:22.828Z,20.20
2023-09-14T00:25:51.468Z,20.20
2023-09-14T00:28:20.982Z,20.20
2023-09-14T00:30:54.504Z,20.17
2023-09-14T00:33:23.988Z,20.15
2023-09-14T00:35:52.320Z,20.15
2023-09-14T00:38:20.412Z,20.18
2023-09-14T00:40:49.628Z,20.21
2023-09-14T00:43:17.920Z,20.22
2023-09-14T00:45:48.294Z,20.22
2023-09-14T00:48:18.111Z,20.24
2023-09-14T00:50:46.742Z,20.25
2023-09-14T00:53:16.988Z,20.26
2023-09-14T00:55:46.688Z,20.28
2023-09-14T00:58:17.274Z,20.26
2023-09-14T01:00:48.604Z,20.24
2023-09-14T01:03:17.256Z,20.21
2023-09-14T01:05:46.770Z,20.22
2023-09-14T01:08:15.270Z,20.25
2023-09-14T01:10:45.832Z,20.22
2023-09-14T01:13:24.387Z,20.25
2023-09-14T01:16:01.050Z,20.27
2023-09-14T01:18:35.684Z,20.28
2023-09-14T01:21:34.107Z,20.27
2023-09-14T01:24:20.074Z,20.30
2023-09-14T01:26:50.811Z,20.29
2023-09-14T01:29:19.721Z,20.30
2023-09-14T01:31:47.786Z,20.31
2023-09-14T01:34:16.086Z,20.33
2023-09-14T01:36:52.845Z,20.32
2023-09-14T01:39:22.871Z,20.32
2023-09-14T01:41:56.204Z,20.31
2023-09-14T01:44:28.267Z,20.27
2023-09-14T01:46:57.366Z,20.27
2023-09-14T01:49:25.479Z,20.29
2023-09-14T01:51:54.181Z,20.31
2023-09-14T01:54:22.312Z,20.34
2023-09-14T01:56:52.434Z,20.35
2023-09-14T01:59:20.503Z,20.37
2023-09-14T02:01:48.659Z,20.39
2023-09-14T02:04:16.734Z,20.37
2023-09-14T02:06:44.807Z,20.36
2023-09-14T02:09:12.883Z,20.37
2023-09-14T02:11:40.932Z,20.36
2023-09-14T02:14:11.201Z,20.34
2023-09-14T02:16:39.389Z,20.34
2023-09-14T02:19:07.525Z,20.35
2023-09-14T02:21:35.675Z,20.36
2023-09-14T02:24:03.717Z,20.34
2023-09-14T02:26:31.782Z,20.32
2023-09-14T02:28:59.837Z,20.34
2023-09-14T02:31:30.056Z,20.34
2023-09-14T02:33:58.470Z,20.33
2023-09-14T02:36:28.165Z,20.35
2023-09-14T02:38:56.898Z,20.32
2023-09-14T02:41:24.974Z,20.35
2023-09-14T02:43:53.047Z,20.36
2023-09-14T02:46:21.115Z,20.34
2023-09-14T02:48:50.920Z,20.35
2023-09-14T02:51:19.907Z,20.34
2023-09-14T02:53:49.882Z,20.33
2023-09-14T02:56:18.187Z,20.33
2023-09-14T02:58:46.381Z,20.33
2023-09-14T03:01:14.937Z,20.27
2023-09-14T03:03:43.264Z,20.20
2023-09-14T03:06:12.728Z,20.20
2023-09-14T03:08:41.062Z,20.16
2023-09-14T03:11:09.165Z,20.06
2023-09-14T03:13:37.949Z,20.00
2023-09-14T03:16:06.421Z,19.95
2023-09-14T03:18:34.672Z,19.90
2023-09-14T03:21:02.739Z,19.86
2023-09-14T03:23:33.681Z,19.80
2023-09-14T03:26:01.768Z,19.75
2023-09-14T03:28:29.847Z,19.72
2023-09-14T03:30:57.887Z,19.69
2023-09-14T03:33:25.983Z,19.67
2023-09-14T03:35:54.114Z,19.66
2023-09-14T03:38:22.226Z,19.68
2023-09-14T03:40:51.750Z,19.65
2023-09-14T03:43:19.772Z,19.66
2023-09-14T03:45:48.205Z,19.69
2023-09-14T03:48:17.491Z,19.69
2023-09-14T03:50:45.712Z,19.66
2023-09-14T03:53:13.718Z,19.60
2023-09-14T03:55:42.090Z,19.56
2023-09-14T03:58:11.612Z,19.60
2023-09-14T04:00:39.819Z,19.65
2023-09-14T04:03:09.724Z,19.66
2023-09-14T04:05:37.922Z,19.68
2023-09-14T04:08:08.319Z,19.73
2023-09-14T04:10:39.432Z,19.74
2023-09-14T04:13:28.669Z,19.73
2023-09-14T04:15:58.462Z,19.77
2023-09-14T04:18:27.070Z,19.80
2023-09-14T04:20:55.962Z,19.81
2023-09-14T04:23:24.234Z,19.82
2023-09-14T04:25:52.939Z,19.84
2023-09-14T04:28:22.306Z,19.83
2023-09-14T04:30:54.372Z,19.84
2023-09-14T04:33:23.354Z,19.88
2023-09-14T04:35:57.192Z,19.91
2023-09-14T04:38:25.481Z,19.95
2023-09-14T04:40:53.698Z,19.99
2023-09-14T04:43:23.712Z,20.00
2023-09-14T04:45:53.469Z,20.01
2023-09-14T04:48:22.182Z,20.04
2023-09-14T04:50:50.286Z,20.03
2023-09-14T04:53:19.841Z,20.03
2023-09-14T04:55:48.613Z,20.01
2023-09-14T04:58:17.188Z,20.00
2023-09-14T05:00:45.481Z,20.01
2023-09-14T05:03:15.029Z,20.00
2023-09-14T05:05:43.275Z,19.98
2023-09-14T05:08:11.734Z,19.96
2023-09-14T05:10:40.010Z,19.95
2023-09-14T05:13:08.222Z,19.87
2023-09-14T05:15:36.483Z,19.83
2023-09-14T05:18:05.390Z,19.83
2023-09-14T05:20:34.888Z,19.88
2023-09-14T05:23:03.202Z,19.92
2023-09-14T05:25:31.292Z,19.97
2023-09-14T05:28:00.530Z,20.03
2023-09-14T05:30:28.689Z,20.06
2023-09-14T05:32:57.122Z,20.09
2023-09-14T05:35:25.214Z,20.11
2023-09-14T05:37:54.878Z,20.11
2023-09-14T05:40:23.087Z,20.10
2023-09-14T05:42:51.190Z,20.14
2023-09-14T05:45:20.090Z,20.18
2023-09-14T05:47:48.467Z,20.24
2023-09-14T05:50:16.540Z,20.27
2023-09-14T05:52:44.891Z,20.26
2023-09-14T05:55:14.378Z,20.22
2023-09-14T05:57:42.587Z,20.24
2023-09-14T06:00:14.302Z,20.21
2023-09-14T06:02:48.147Z,20.20
2023-09-14T06:05:25.262Z,20.12
2023-09-14T06:07:54.542Z,20.16
2023-09-14T06:10:24.427Z,20.21
2023-09-14T06:12:53.043Z,20.26
2023-09-14T06:15:21.308Z,20.31
2023-09-14T06:17:49.621Z,20.30
2023-09-14T06:20:18.134Z,20.32
2023-09-14T06:22:46.264Z,20.31
2023-09-14T06:25:14.495Z,20.33
2023-09-14T06:27:45.433Z,20.33
2023-09-14T06:30:14.681Z,20.33
2023-09-14T06:32:42.753Z,20.33
2023-09-14T06:35:12.037Z,20.34
2023-09-14T06:37:40.159Z,20.36
2023-09-14T06:40:10.215Z,20.36
2023-09-14T06:42:38.615Z,20.37
2023-09-14T06:45:09.531Z,20.30
2023-09-14T06:47:37.664Z,20.30
2023-09-14T06:50:06.308Z,20.35
2023-09-14T06:52:35.448Z,20.42
2023-09-14T06:55:04.159Z,20.37
2023-09-14T06:57:32.243Z,20.36
2023-09-14T07:00:01.942Z,20.31
2023-09-14T07:02:31.612Z,20.31
2023-09-14T07:04:59.696Z,20.36
2023-09-14T07:07:27.778Z,20.47
2023-09-14T07:09:55.863Z,20.56
2023-09-14T07:12:24.035Z,20.60
2023-09-14T07:14:52.186Z,20.72
2023-09-14T07:17:22.946Z,20.92
2023-09-14T07:19:53.002Z,21.25
2023-09-14T07:22:21.744Z,21.73
2023-09-14T07:24:50.067Z,22.25
2023-09-14T07:27:18.499Z,22.69
2023-09-14T07:29:48.659Z,23.08
2023-09-14T07:32:16.809Z,23.46
2023-09-14T07:34:45.117Z,23.85
2023-09-14T07:37:14.812Z,24.20
2023-09-14T07:39:43.048Z,24.49
2023-09-14T07:42:11.249Z,24.70
2023-09-14T07:44:39.460Z,24.95
2023-09-14T07:47:07.681Z,25.25
2023-09-14T07:49:35.837Z,25.27
2023-09-14T07:52:04.029Z,25.31
2023-09-14T07:54:35.768Z,25.52
2023-09-14T07:57:03.913Z,25.64
2023-09-14T07:59:32.033Z,25.60
2023-09-14T08:02:00.116Z,25.39
2023-09-14T08:04:28.287Z,25.28
2023-09-14T08:06:56.504Z,25.23
2023-09-14T08:09:25.001Z,25.20
2023-09-14T08:11:54.409Z,25.19
2023-09-14T08:14:22.420Z,25.22
2023-09-14T08:16:50.745Z,25.24
2023-09-14T08:19:18.965Z,25.20
2023-09-14T08:21:47.061Z,25.24
2023-09-14T08:24:15.220Z,25.17
2023-09-14T08:26:43.312Z,25.09
2023-09-14T08:29:13.376Z,25.25
2023-09-14T08:31:44.089Z,25.49
2023-09-14T08:34:13.220Z,25.68
2023-09-14T08:36:41.323Z,25.76
2023-09-14T08:39:16.369Z,25.87
2023-09-14T08:41:45.641Z,25.88
2023-09-14T08:44:16.624Z,25.91
2023-09-14T08:46:46.214Z,25.99
2023-09-14T08:49:15.776Z,26.11
2023-09-14T08:51:46.023Z,26.38
2023-09-14T08:54:17.182Z,26.70
2023-09-14T08:56:47.999Z,26.99
2023-09-14T08:59:21.130Z,27.26
2023-09-14T09:01:50.174Z,27.38
2023-09-14T09:04:18.912Z,27.45
2023-09-14T09:06:47.401Z,27.10
2023-09-14T09:09:22.412Z,27.02
2023-09-14T09:11:51.696Z,27.13
2023-09-14T09:14:21.160Z,27.23
2023-09-14T09:16:49.269Z,27.26
2023-09-14T09:19:17.601Z,27.15
2023-09-14T09:21:48.169Z,27.25
2023-09-14T09:24:28.127Z,27.39
2023-09-14T09:26:56.874Z,27.31
2023-09-14T09:29:27.368Z,27.73
2023-09-14T09:31:55.542Z,28.31
2023-09-14T09:34:26.848Z,28.71
2023-09-14T09:36:59.316Z,28.90
2023-09-14T09:39:27.757Z,29.22
2023-09-14T09:41:55.956Z,29.26
2023-09-14T09:44:28.594Z,28.92
2023-09-14T09:47:00.099Z,28.60
2023-09-14T09:49:32.367Z,28.06
2023-09-14T09:52:00.702Z,27.70
2023-09-14T09:54:29.122Z,28.00
2023-09-14T09:56:59.034Z,28.62
2023-09-14T09:59:30.946Z,28.71
2023-09-14T10:02:00.498Z,28.18
2023-09-14T10:04:29.638Z,27.58
2023-09-14T10:06:58.272Z,27.21
2023-09-14T10:09:34.451Z,27.11
2023-09-14T10:12:05.475Z,26.92
2023-09-14T10:14:37.128Z,26.79
2023-09-14T10:17:09.925Z,26.57
2023-09-14T10:19:40.816Z,26.50
2023-09-14T10:22:10.796Z,26.46
2023-09-14T10:24:39.446Z,26.37
2023-09-14T10:27:08.970Z,26.28
2023-09-14T10:29:40.544Z,26.42
2023-09-14T10:32:12.265Z,26.94
2023-09-14T10:34:52.143Z,27.71
2023-09-14T10:37:22.025Z,28.20
2023-09-14T10:39:50.827Z,28.57
2023-09-14T10:42:19.005Z,29.24
2023-09-14T10:44:47.175Z,29.91
2023-09-14T10:47:19.193Z,30.42
2023-09-14T10:49:48.637Z,30.92
2023-09-14T10:52:25.459Z,31.25
2023-09-14T10:54:53.640Z,31.10
2023-09-14T10:57:25.141Z,31.06
2023-09-14T10:59:55.084Z,30.31
2023-09-14T11:05:43.413Z,28.74
2023-09-14T11:08:13.311Z,28.20
2023-09-14T11:10:56.448Z,27.78
2023-09-14T11:13:36.782Z,27.63
2023-09-14T11:16:16.154Z,28.00
2023-09-14T11:18:59.338Z,28.67
2023-09-14T11:21:45.558Z,29.19
2023-09-14T11:24:18.153Z,28.99
2023-09-14T11:26:53.673Z,28.65
2023-09-14T11:29:28.367Z,28.28
2023-09-14T11:32:02.285Z,27.95
2023-09-14T11:34:39.729Z,27.70
2023-09-14T11:37:19.794Z,27.46
2023-09-14T11:40:30.926Z,27.23
2023-09-14T11:46:05.706Z,27.76
2023-09-14T11:51:10.323Z,29.03
2023-09-14T11:53:38.590Z,30.08
2023-09-14T11:56:06.833Z,31.14
2023-09-14T11:58:36.663Z,31.42
2023-09-14T12:01:05.456Z,31.59
2023-09-14T12:03:33.801Z,31.72
2023-09-14T12:06:02.111Z,31.65
2023-09-14T12:08:33.713Z,31.23
2023-09-14T12:11:03.025Z,30.86
2023-09-14T12:13:31.628Z,30.25
2023-09-14T12:16:01.837Z,30.31
2023-09-14T12:18:42.290Z,30.77
2023-09-14T12:21:11.493Z,30.94
2023-09-14T12:23:43.353Z,30.95
2023-09-14T12:26:15.865Z,31.19
2023-09-14T12:28:48.026Z,31.69
2023-09-14T12:31:17.813Z,32.37
2023-09-14T12:33:46.639Z,32.22
2023-09-14T12:36:20.936Z,31.63
2023-09-14T12:38:52.528Z,31.54
2023-09-14T12:41:23.324Z,32.12
2023-09-14T12:43:51.745Z,32.56
2023-09-14T12:46:40.523Z,32.73
2023-09-14T12:49:08.936Z,32.98
2023-09-14T12:51:45.819Z,33.07
2023-09-14T12:54:18.138Z,32.68
2023-09-14T12:56:46.542Z,31.64
2023-09-14T12:59:14.599Z,30.53
2023-09-14T13:01:42.718Z,29.64
2023-09-14T13:04:11.127Z,29.16
2023-09-14T13:06:39.563Z,28.94
2023-09-14T13:09:09.788Z,29.14
2023-09-14T13:11:40.287Z,29.87
2023-09-14T13:14:08.933Z,30.07
2023-09-14T13:16:37.126Z,30.21
2023-09-14T13:19:05.796Z,30.18
2023-09-14T13:21:37.839Z,30.44
2023-09-14T13:24:07.640Z,30.84
2023-09-14T13:26:36.180Z,30.89
2023-09-14T13:29:06.079Z,31.25
2023-09-14T13:31:34.216Z,31.52
2023-09-14T13:34:03.110Z,31.56
2023-09-14T13:36:31.263Z,31.21
2023-09-14T13:39:02.127Z,31.34
2023-09-14T13:41:30.603Z,31.72
2023-09-14T13:43:58.644Z,31.88
2023-09-14T13:46:29.187Z,31.70
2023-09-14T13:48:58.800Z,31.73
2023-09-14T13:51:27.058Z,31.68
2023-09-14T13:53:55.127Z,31.79
2023-09-14T13:56:23.204Z,31.84
2023-09-14T13:58:51.255Z,31.63
2023-09-14T14:01:19.449Z,31.93
2023-09-14T14:03:49.850Z,32.31
2023-09-14T14:06:18.065Z,32.27
2023-09-14T14:08:46.128Z,32.50
2023-09-14T14:11:14.128Z,32.57
2023-09-14T14:13:42.204Z,32.34
2023-09-14T14:16:10.936Z,32.08
2023-09-14T14:18:39.068Z,32.02
2023-09-14T14:21:08.488Z,32.19
2023-09-14T14:23:36.553Z,32.09
2023-09-14T14:26:04.585Z,31.82
2023-09-14T14:28:32.672Z,31.66
2023-09-14T14:31:00.789Z,31.60
2023-09-14T14:33:31.547Z,31.41
2023-09-14T14:36:00.940Z,31.24
2023-09-14T14:38:30.369Z,31.40
2023-09-14T14:41:25.885Z,31.84
2023-09-14T14:43:46.804Z,31.83
2023-09-14T14:46:15.346Z,31.41
2023-09-14T14:48:44.324Z,31.16
2023-09-14T14:51:12.616Z,31.12
2023-09-14T14:53:42.933Z,30.68
2023-09-14T14:56:11.075Z,30.26
2023-09-14T14:58:39.097Z,30.12
2023-09-14T15:01:11.515Z,29.91
2023-09-14T15:03:40.006Z,29.95
2023-09-14T15:06:08.879Z,30.15
2023-09-14T15:08:37.742Z,30.21
2023-09-14T15:11:08.177Z,30.04
2023-09-14T15:13:36.723Z,30.03
2023-09-14T15:16:05.484Z,30.01
2023-09-14T15:18:38.562Z,29.95
2023-09-14T15:21:07.063Z,29.81
2023-09-14T15:23:35.379Z,29.53
2023-09-14T15:26:05.725Z,29.23
2023-09-14T15:28:35.277Z,29.26
2023-09-14T15:31:11.707Z,29.23
2023-09-14T15:33:40.395Z,29.18
2023-09-14T15:36:08.846Z,29.21
2023-09-14T15:38:36.977Z,29.30
2023-09-14T15:41:05.059Z,29.45
2023-09-14T15:43:33.092Z,29.54
2023-09-14T15:46:03.137Z,29.53
2023-09-14T15:48:31.517Z,29.42
2023-09-14T15:50:59.629Z,29.26
2023-09-14T15:53:28.771Z,29.27
2023-09-14T15:55:56.937Z,29.22
2023-09-14T15:58:24.977Z,29.08
2023-09-14T16:00:58.460Z,29.05
2023-09-14T16:03:28.119Z,29.12
2023-09-14T16:05:58.398Z,29.07
2023-09-14T16:08:26.508Z,28.94
2023-09-14T16:10:57.014Z,28.72
2023-09-14T16:13:25.104Z,28.43
2023-09-14T16:15:53.520Z,28.25
2023-09-14T16:18:21.912Z,28.18
2023-09-14T16:20:51.377Z,28.09
2023-09-14T16:23:19.493Z,27.94
2023-09-14T16:25:52.046Z,27.91
2023-09-14T16:28:20.840Z,27.90
2023-09-14T16:30:51.277Z,27.80
2023-09-14T16:33:21.457Z,27.66
2023-09-14T16:35:57.217Z,27.40
2023-09-14T16:38:25.750Z,27.20
2023-09-14T16:40:54.021Z,27.13
2023-09-14T16:43:22.349Z,27.13
2023-09-14T16:45:50.821Z,27.07
2023-09-14T16:48:19.003Z,27.04
2023-09-14T16:50:49.398Z,26.98
2023-09-14T16:53:19.933Z,26.93
2023-09-14T16:55:48.031Z,26.84
2023-09-14T16:58:17.205Z,26.56
2023-09-14T17:00:45.252Z,26.42
2023-09-14T17:03:15.764Z,26.37
2023-09-14T17:05:43.797Z,26.28
2023-09-14T17:08:13.557Z,26.19
2023-09-14T17:10:42.963Z,26.04
2023-09-14T17:13:11.059Z,25.89
2023-09-14T17:15:39.237Z,25.73
2023-09-14T17:18:08.014Z,25.54
2023-09-14T17:20:36.174Z,25.35
2023-09-14T17:23:05.897Z,25.20
2023-09-14T17:25:33.966Z,25.01
2023-09-14T17:28:03.432Z,24.84
2023-09-14T17:30:32.149Z,24.66
2023-09-14T17:33:00.577Z,24.49
2023-09-14T17:35:28.997Z,24.33
2023-09-14T17:37:57.159Z,24.18
2023-09-14T17:40:25.444Z,24.04
2023-09-14T17:42:53.546Z,23.92
2023-09-14T17:45:22.970Z,23.80
2023-09-14T17:47:51.198Z,23.65
2023-09-14T17:50:19.377Z,23.51
2023-09-14T17:52:47.575Z,23.38
2023-09-14T17:55:17.329Z,23.26
2023-09-14T17:57:45.980Z,23.12
2023-09-14T18:00:15.826Z,23.01
2023-09-14T18:02:47.037Z,22.93
2023-09-14T18:05:15.448Z,22.83
2023-09-14T18:07:44.988Z,22.75
2023-09-14T18:10:13.785Z,22.66
2023-09-14T18:12:41.957Z,22.55
2023-09-14T18:15:11.285Z,22.48
2023-09-14T18:17:39.447Z,22.39
2023-09-14T18:20:11.745Z,22.33
2023-09-14T18:22:42.241Z,22.22
2023-09-14T18:25:11.724Z,22.14
2023-09-14T18:27:39.871Z,22.06
2023-09-14T18:30:09.880Z,21.99
2023-09-14T18:32:51.402Z,21.92
2023-09-14T18:35:21.080Z,21.87
2023-09-14T18:37:52.189Z,21.80
2023-09-14T18:40:20.412Z,21.74
2023-09-14T18:42:50.072Z,21.66
2023-09-14T18:45:18.548Z,21.61
2023-09-14T18:47:46.636Z,21.55
2023-09-14T18:50:14.772Z,21.50
2023-09-14T18:52:45.117Z,21.44
2023-09-14T18:55:14.895Z,21.38
2023-09-14T18:57:44.646Z,21.33
2023-09-14T19:00:13.475Z,21.29
2023-09-14T19:02:43.107Z,21.25
2023-09-14T19:05:11.280Z,21.19
2023-09-14T19:07:39.344Z,21.14
2023-09-14T19:10:10.370Z,21.10
2023-09-14T19:12:38.568Z,21.05
2023-09-14T19:15:08.486Z,21.01
2023-09-14T19:17:36.564Z,20.96
2023-09-14T19:20:09.170Z,20.91
2023-09-14T19:22:37.245Z,20.88
2023-09-14T19:25:06.045Z,20.83
2023-09-14T19:27:35.565Z,20.76
2023-09-14T19:30:05.649Z,20.74
2023-09-14T19:32:34.331Z,20.69
2023-09-14T19:35:02.467Z,20.64
2023-09-14T19:37:30.534Z,20.61
2023-09-14T19:39:58.638Z,20.60
2023-09-14T19:42:27.035Z,20.59
2023-09-14T19:44:59.538Z,20.56
2023-09-14T19:47:28.227Z,20.51
2023-09-14T19:49:56.932Z,20.48
2023-09-14T19:52:25.570Z,20.44
2023-09-14T19:54:53.602Z,20.41
2023-09-14T19:57:21.683Z,20.37
2023-09-14T19:59:49.784Z,20.33
2023-09-14T20:02:19.667Z,20.27
2023-09-14T20:04:48.135Z,20.21
2023-09-14T20:07:16.277Z,20.16
2023-09-14T20:09:44.388Z,20.14
2023-09-14T20:12:17.282Z,20.12
2023-09-14T20:14:46.194Z,20.09
2023-09-14T20:17:16.904Z,20.03
2023-09-14T20:19:46.432Z,20.00
2023-09-14T20:22:14.811Z,19.96
2023-09-14T20:24:44.661Z,19.91
2023-09-14T20:27:13.273Z,19.89
2023-09-14T20:29:41.311Z,19.88
2023-09-14T20:32:09.369Z,19.85
2023-09-14T20:34:37.522Z,19.82
2023-09-14T20:37:08.299Z,19.81
2023-09-14T20:39:36.438Z,19.80
2023-09-14T20:42:05.200Z,19.76
2023-09-14T20:44:33.317Z,19.72
2023-09-14T20:47:01.382Z,19.68
2023-09-14T20:49:29.688Z,19.68
2023-09-14T20:51:57.883Z,19.67
2023-09-14T20:54:27.358Z,19.65
2023-09-14T20:56:55.624Z,19.60
2023-09-14T20:59:23.890Z,19.58
2023-09-14T21:01:52.969Z,19.59
2023-09-14T21:04:21.071Z,19.58
2023-09-14T21:06:49.251Z,19.58
2023-09-14T21:09:17.469Z,19.56
2023-09-14T21:11:47.016Z,19.56
2023-09-14T21:14:15.108Z,19.51
2023-09-14T21:16:43.292Z,19.43
2023-09-14T21:19:11.519Z,19.40
2023-09-14T21:21:40.012Z,19.36
2023-09-14T21:24:08.830Z,19.35
2023-09-14T21:26:36.918Z,19.32
2023-09-14T21:29:06.464Z,19.28
2023-09-14T21:31:34.639Z,19.28
2023-09-14T21:34:02.702Z,19.29
2023-09-14T21:36:30.817Z,19.28
2023-09-14T21:38:59.346Z,19.28
2023-09-14T21:41:27.448Z,19.27
2023-09-14T21:43:55.566Z,19.24
2023-09-14T21:46:25.685Z,19.18
2023-09-14T21:48:54.217Z,19.18
2023-09-14T21:51:22.338Z,19.18
2023-09-14T21:53:50.490Z,19.17
2023-09-14T21:56:18.549Z,19.14
2023-09-14T21:58:46.825Z,19.11
2023-09-14T22:01:15.429Z,19.12
2023-09-14T22:03:51.551Z,19.14
2023-09-14T22:08:51.344Z,19.14
2023-09-14T22:11:19.458Z,19.11
2023-09-14T22:13:47.586Z,19.10
2023-09-14T22:16:15.808Z,19.12
2023-09-14T22:18:47.183Z,19.13
2023-09-14T22:21:15.628Z,19.13
2023-09-14T22:23:44.664Z,19.10
2023-09-14T22:26:12.934Z,19.05
2023-09-14T22:28:41.035Z,19.06
2023-09-14T22:31:13.686Z,19.02
2023-09-14T22:33:42.220Z,18.99
2023-09-14T22:36:12.304Z,18.97
2023-09-14T22:38:41.143Z,18.92
2023-09-14T22:41:09.203Z,18.89
2023-09-14T22:43:37.229Z,18.87
2023-09-14T22:46:05.338Z,18.86
2023-09-14T22:48:33.472Z,18.82
2023-09-14T22:51:06.068Z,18.76
2023-09-14T22:53:38.556Z,18.73
2023-09-14T22:56:15.477Z,18.68
2023-09-14T22:58:44.881Z,18.62
2023-09-14T23:01:13.364Z,18.57
2023-09-14T23:03:42.247Z,18.54
2023-09-14T23:06:13.061Z,18.52
2023-09-14T23:08:45.576Z,18.52
2023-09-14T23:11:21.528Z,18.51
2023-09-14T23:13:50.336Z,18.48
2023-09-14T23:16:19.429Z,18.44
2023-09-14T23:18:47.813Z,18.40
2023-09-14T23:21:16.603Z,18.39
2023-09-14T23:23:46.297Z,18.37
2023-09-14T23:26:14.662Z,18.36
2023-09-14T23:28:42.719Z,18.34
2023-09-14T23:31:10.835Z,18.30
2023-09-14T23:33:39.021Z,18.29
2023-09-14T23:36:09.832Z,18.25
2023-09-14T23:38:38.504Z,18.24
2023-09-14T23:41:07.350Z,18.18
2023-09-14T23:43:35.683Z,18.17
2023-09-14T23:46:04.831Z,18.13
2023-09-14T23:48:34.304Z,18.11
2023-09-14T23:51:02.375Z,18.06
2023-09-14T23:53:30.537Z,17.98
2023-09-14T23:55:58.617Z,17.97
2023-09-14T23:58:28.029Z,17.95
